Time;durP1;ratioP1;P1;durP2;ratioP2;P2;SDS_P1;SDS_P2;PMS_P1;PMS_P2;Temp;Humidity;BMP_temperature;BMP_pressure;BME280_temperature;BME280_humidity;BME280_pressure;Samples;Min_cycle;Max_cycle;Signal;HPM_P1;HPM_P2
2022/02/03 00:02:26;;;;;;;14.43;11.03;;;;;;;2.61;95.21;94202.41;5057924;28;20555;-80
2022/02/03 00:05:01;;;;;;;9.37;8.37;;;;;;;2.56;94.52;94188.91;5075495;28;20452;-80
2022/02/03 00:07:35;;;;;;;12.43;10.20;;;;;;;2.60;94.64;94209.34;5075151;28;20443;-79
2022/02/03 00:34:43;;;;;;;9.37;8.40;;;;;;;2.46;95.60;94232.69;5010541;28;20453;-79
2022/02/03 00:37:17;;;;;;;11.05;8.63;;;;;;;2.46;95.98;94230.09;5012562;28;20501;-80
2022/02/03 00:48:22;;;;;;;12.90;9.40;;;;;;;2.42;99.49;94237.25;5012358;28;20465;-80
2022/02/03 00:50:53;;;;;;;15.33;11.57;;;;;;;2.42;98.22;94242.41;5012034;28;20455;-80
2022/02/03 00:53:23;;;;;;;15.98;10.00;;;;;;;2.34;99.12;94244.66;5072566;28;20900;-79
2022/02/03 00:55:55;;;;;;;15.17;10.53;;;;;;;2.34;99.58;94243.84;5096704;28;20225;-79
2022/02/03 01:15:21;;;;;;;12.75;11.38;;;;;;;2.22;100.00;94250.59;5114279;28;20172;-80
2022/02/03 01:17:57;;;;;;;19.53;11.80;;;;;;;2.20;100.00;94243.88;5114334;28;20249;-79
2022/02/03 01:43:53;;;;;;;18.00;11.30;;;;;;;2.26;100.00;94270.19;5071341;28;20428;-79
2022/02/03 01:46:29;;;;;;;17.38;11.38;;;;;;;2.25;100.00;94271.13;5071324;28;20444;-79
2022/02/03 01:49:11;;;;;;;19.20;12.63;;;;;;;2.24;100.00;94266.03;5070990;28;20190;-79
2022/02/03 01:51:54;;;;;;;17.50;13.00;;;;;;;2.28;100.00;94276.09;5041266;28;20222;-79
2022/02/03 01:54:27;;;;;;;18.30;12.50;;;;;;;2.24;100.00;94276.38;5039769;28;20444;-79
2022/02/03 01:57:06;;;;;;;16.00;12.27;;;;;;;2.24;100.00;94290.16;5071051;28;20507;-79
2022/02/03 01:59:38;;;;;;;17.30;10.90;;;;;;;2.22;100.00;94279.06;5101709;28;20544;-79
2022/02/03 02:02:08;;;;;;;16.05;11.45;;;;;;;2.23;100.00;94288.50;5113456;28;20964;-80
2022/02/03 02:05:07;;;;;;;17.25;12.48;;;;;;;2.27;100.00;94289.97;5077959;28;20674;-79
2022/02/03 02:08:06;;;;;;;12.93;10.77;;;;;;;2.21;100.00;94290.34;5128739;28;20201;-79
2022/02/03 02:11:01;;;;;;;16.10;12.43;;;;;;;2.28;100.00;94291.63;5011623;28;20446;-79
2022/02/03 02:13:51;;;;;;;19.50;13.77;;;;;;;2.32;100.00;94289.72;5011949;28;20475;-79
2022/02/03 02:16:44;;;;;;;15.60;11.43;;;;;;;2.35;100.00;94298.09;5011033;28;21024;-80
2022/02/03 02:19:22;;;;;;;16.33;12.10;;;;;;;2.41;100.00;94300.31;4978838;28;20241;-80
2022/02/03 02:38:55;;;;;;;19.58;11.75;;;;;;;2.35;100.00;94329.19;5011024;28;20196;-79
2022/02/03 02:44:37;;;;;;;13.53;10.33;;;;;;;2.28;100.00;94330.44;4926314;29;20442;-80
2022/02/03 02:47:09;;;;;;;16.20;12.50;;;;;;;2.30;100.00;94335.53;4978655;28;20441;-79
2022/02/03 02:49:49;;;;;;;14.80;10.85;;;;;;;2.33;100.00;94333.63;5050623;28;20216;-79
2022/02/03 02:52:23;;;;;;;13.27;10.80;;;;;;;2.37;100.00;94344.59;5050483;28;20222;-79
2022/02/03 02:55:06;;;;;;;12.83;10.53;;;;;;;2.41;100.00;94351.25;5050545;28;20848;-79
2022/02/03 03:03:53;;;;;;;16.43;11.87;;;;;;;2.49;99.39;94346.44;5091049;28;20191;-80
2022/02/03 03:29:06;;;;;;;16.40;12.60;;;;;;;2.70;96.23;94370.16;5008786;28;20456;-77
2022/02/03 03:31:50;;;;;;;21.98;13.20;;;;;;;2.71;96.42;94371.81;5008767;28;20439;-78
2022/02/03 03:34:33;;;;;;;15.00;10.93;;;;;;;2.78;96.52;94376.53;5008903;28;20194;-78
2022/02/03 03:37:16;;;;;;;16.23;10.90;;;;;;;2.74;96.91;94371.63;5008306;28;20435;-78
2022/02/03 03:39:49;;;;;;;16.10;11.70;;;;;;;2.76;96.16;94390.50;4960844;28;21027;-76
2022/02/03 03:42:24;;;;;;;15.10;10.80;;;;;;;2.82;96.31;94386.69;5008242;28;20489;-77
2022/02/03 03:44:55;;;;;;;13.60;11.40;;;;;;;2.77;97.29;94382.63;5008253;28;20653;-76
2022/02/03 03:54:12;;;;;;;14.05;10.32;;;;;;;2.49;97.53;94385.28;5089769;28;20482;-80
2022/02/03 03:56:53;;;;;;;13.60;11.17;;;;;;;2.54;97.19;94405.69;5090316;28;20190;-77
2022/02/03 03:59:54;;;;;;;16.10;11.17;;;;;;;2.49;97.77;94409.41;5089909;28;20521;-78
2022/02/03 04:29:29;;;;;;;12.77;9.43;;;;;;;2.49;97.27;94447.41;5074613;28;20433;-78
2022/02/03 04:43:58;;;;;;;13.30;10.10;;;;;;;2.38;97.50;94463.59;5033543;28;20491;-78
2022/02/03 04:59:22;;;;;;;16.03;9.97;;;;;;;2.31;96.33;94489.94;4974317;28;20474;-79
2022/02/03 05:02:16;;;;;;;15.23;10.77;;;;;;;2.34;96.27;94502.72;4941609;28;20461;-79
2022/02/03 05:05:06;;;;;;;15.20;11.47;;;;;;;2.31;96.58;94500.28;4974128;28;21129;-81
2022/02/03 05:08:01;;;;;;;12.07;9.73;;;;;;;2.34;96.82;94505.31;4974210;28;20825;-80
2022/02/03 05:10:57;;;;;;;12.10;9.63;;;;;;;2.36;96.52;94522.41;4929711;28;20960;-80
2022/02/03 05:14:09;;;;;;;11.27;9.10;;;;;;;2.29;96.22;94520.25;4974615;28;20505;-80
2022/02/03 05:17:06;;;;;;;13.93;9.63;;;;;;;2.26;96.18;94523.03;4976240;28;20530;-80
2022/02/03 05:20:22;;;;;;;12.40;10.20;;;;;;;2.32;96.60;94528.69;4995455;28;20487;-80
2022/02/03 05:32:59;;;;;;;13.10;10.40;;;;;;;2.31;95.77;94565.84;5032499;28;20412;-79
2022/02/03 05:42:17;;;;;;;16.63;12.20;;;;;;;2.39;95.68;94574.00;5052334;28;20423;-80
2022/02/03 05:45:24;;;;;;;19.97;12.87;;;;;;;2.36;95.46;94584.53;5052097;28;20453;-80
2022/02/03 05:48:20;;;;;;;20.63;12.38;;;;;;;2.34;95.40;94583.81;5052486;28;21053;-78
2022/02/03 06:04:47;;;;;;;14.57;11.33;;;;;;;2.35;95.39;94613.94;4916084;29;20442;-80
2022/02/03 06:07:40;;;;;;;14.17;12.67;;;;;;;2.36;95.11;94625.13;4915703;29;20532;-82
2022/02/03 06:15:47;;;;;;;16.67;11.80;;;;;;;2.31;94.23;94632.31;4841101;29;20203;-79
2022/02/03 06:24:02;;;;;;;16.10;11.87;;;;;;;2.35;93.02;94647.59;4877615;29;20526;-79
2022/02/03 06:29:17;;;;;;;17.10;12.83;;;;;;;2.32;92.83;94660.72;4876584;29;20496;-82
2022/02/03 06:31:46;;;;;;;11.20;9.67;;;;;;;2.34;92.85;94674.41;4910707;29;20448;-80
2022/02/03 06:34:13;;;;;;;13.63;10.70;;;;;;;2.44;92.66;94669.53;4913652;29;20441;-80
2022/02/03 06:36:41;;;;;;;17.20;12.27;;;;;;;2.47;91.83;94665.03;4913871;29;20460;-79
2022/02/03 06:39:17;;;;;;;18.00;11.63;;;;;;;2.42;91.80;94677.41;4913673;29;20493;-79
2022/02/03 06:41:45;;;;;;;18.17;11.70;;;;;;;2.46;91.58;94676.31;4949487;28;20455;-79
2022/02/03 06:44:14;;;;;;;20.10;12.23;;;;;;;2.49;91.17;94691.66;4991757;28;20449;-80
2022/02/03 06:46:45;;;;;;;15.33;9.73;;;;;;;2.44;92.16;94683.31;4991852;28;20443;-80
2022/02/03 06:49:18;;;;;;;16.80;10.80;;;;;;;2.43;91.68;94697.19;4990502;28;20450;-80
2022/02/03 06:51:53;;;;;;;16.40;11.57;;;;;;;2.45;91.56;94703.13;4983315;28;20573;-79
2022/02/03 07:01:10;;;;;;;14.43;11.27;;;;;;;2.46;91.54;94714.31;5049613;28;20544;-80
2022/02/03 07:03:41;;;;;;;14.97;11.37;;;;;;;2.53;91.24;94722.56;5053323;28;20802;-80
2022/02/03 07:06:08;;;;;;;16.00;11.23;;;;;;;2.48;90.39;94717.66;5052959;28;20898;-79
2022/02/03 07:08:36;;;;;;;13.03;10.10;;;;;;;2.49;90.72;94724.50;5053306;28;20430;-81
2022/02/03 07:11:03;;;;;;;10.00;8.77;;;;;;;2.52;90.37;94726.91;5052932;28;20443;-80
2022/02/03 07:13:36;;;;;;;17.53;8.73;;;;;;;2.56;89.75;94727.56;5053583;28;20441;-80
2022/02/03 07:16:03;;;;;;;11.40;9.67;;;;;;;2.62;89.92;94725.50;5053714;28;20833;-79
2022/02/03 07:18:31;;;;;;;10.00;8.40;;;;;;;2.58;90.17;94729.16;5053149;28;20459;-80
2022/02/03 07:20:58;;;;;;;11.10;8.80;;;;;;;2.60;89.34;94735.09;5052667;28;20531;-81
2022/02/03 07:23:25;;;;;;;11.10;8.80;;;;;;;2.61;89.82;94741.13;5052962;28;20459;-80
2022/02/03 07:25:52;;;;;;;10.43;8.80;;;;;;;2.53;89.05;94735.50;5033727;28;20447;-80
2022/02/03 07:28:18;;;;;;;15.00;10.67;;;;;;;2.67;90.04;94743.34;5052787;28;20941;-81
2022/02/03 07:30:45;;;;;;;13.30;9.90;;;;;;;2.67;88.91;94745.94;5052703;28;20435;-79
2022/02/03 07:33:13;;;;;;;14.27;10.77;;;;;;;2.70;88.76;94740.59;5052921;28;20439;-78
2022/02/03 07:35:41;;;;;;;15.33;10.67;;;;;;;2.75;89.45;94746.34;5051484;28;20446;-80
2022/02/03 07:38:09;;;;;;;16.73;11.70;;;;;;;2.80;88.74;94760.69;5052671;28;20824;-79
2022/02/03 07:40:36;;;;;;;11.97;9.97;;;;;;;2.76;88.32;94763.56;5050972;28;20486;-79
2022/02/03 07:43:05;;;;;;;13.50;9.97;;;;;;;2.71;88.88;94766.41;5053180;28;20435;-80
2022/02/03 07:45:32;;;;;;;17.43;12.17;;;;;;;2.86;89.45;94766.44;5053970;28;20561;-79
2022/02/03 07:47:59;;;;;;;17.33;11.63;;;;;;;2.80;87.60;94773.66;5056721;28;20867;-80
2022/02/03 07:50:26;;;;;;;16.33;12.20;;;;;;;2.79;88.77;94784.09;5056267;28;20934;-78
2022/02/03 07:52:55;;;;;;;13.97;11.37;;;;;;;2.78;88.84;94788.44;5054379;28;20480;-79
2022/02/03 07:55:22;;;;;;;12.70;10.80;;;;;;;2.96;92.60;94775.38;5056210;28;20443;-79
2022/02/03 07:57:51;;;;;;;17.77;12.83;;;;;;;2.92;89.42;94789.44;5056347;28;20485;-80
2022/02/03 08:00:23;;;;;;;17.27;13.67;;;;;;;2.97;88.75;94787.44;5056468;28;20492;-79
2022/02/03 08:02:50;;;;;;;18.03;11.47;;;;;;;3.00;87.85;94801.03;5056060;28;20442;-81
2022/02/03 08:05:20;;;;;;;17.00;11.90;;;;;;;3.02;87.67;94814.75;5056028;28;20439;-78
2022/02/03 08:07:52;;;;;;;13.80;9.50;;;;;;;2.99;88.00;94807.16;5055946;28;20807;-80
2022/02/03 08:13:07;;;;;;;21.10;14.30;;;;;;;3.03;87.86;94813.81;5055825;28;20517;-83
2022/02/03 08:15:37;;;;;;;26.23;18.87;;;;;;;3.05;88.09;94817.16;5056090;28;20490;-81
2022/02/03 08:18:09;;;;;;;62.00;34.23;;;;;;;3.00;87.75;94816.59;5055922;28;20443;-79
2022/02/03 08:20:38;;;;;;;38.90;25.93;;;;;;;3.05;87.96;94830.13;5055674;28;20923;-79
2022/02/03 08:26:02;;;;;;;27.47;16.13;;;;;;;3.02;87.60;94837.22;5013447;28;20455;-81
2022/02/03 08:28:41;;;;;;;38.43;22.27;;;;;;;2.95;87.61;94836.75;5013485;28;20548;-82
2022/02/03 08:31:11;;;;;;;24.90;17.45;;;;;;;2.94;87.79;94839.44;5013053;28;20446;-79
2022/02/03 08:33:38;;;;;;;21.97;15.20;;;;;;;2.83;88.06;94839.19;5013276;28;20217;-83
2022/02/03 08:36:07;;;;;;;23.63;14.97;;;;;;;2.84;88.45;94839.09;5013332;28;20450;-80
2022/02/03 08:38:46;;;;;;;22.37;14.33;;;;;;;2.78;88.11;94839.44;4965634;28;20503;-81
2022/02/03 08:41:14;;;;;;;39.33;27.60;;;;;;;2.90;88.70;94854.31;4980583;28;20990;-81
2022/02/03 08:43:43;;;;;;;20.10;14.20;;;;;;;2.92;88.83;94860.25;5013503;28;20442;-79
2022/02/03 08:46:14;;;;;;;18.17;12.43;;;;;;;2.92;88.25;94862.00;5013416;28;20512;-79
2022/02/03 08:48:42;;;;;;;24.20;11.33;;;;;;;2.92;88.14;94856.81;5013368;28;20498;-78
2022/02/03 08:51:12;;;;;;;19.63;12.83;;;;;;;3.00;87.68;94872.78;5013365;28;20491;-79
2022/02/03 08:53:43;;;;;;;19.43;11.70;;;;;;;3.05;88.58;94875.94;5013457;28;20464;-78
2022/02/03 08:56:22;;;;;;;23.33;14.40;;;;;;;3.16;87.83;94877.94;4964428;28;20481;-79
2022/02/03 09:41:13;;;;;;;16.47;12.87;;;;;;;3.55;84.51;94924.97;5032116;28;20478;-80
2022/02/03 09:52:29;;;;;;;14.50;11.63;;;;;;;3.56;84.00;94931.81;5032405;28;21024;-79
2022/02/03 09:57:50;;;;;;;29.60;19.73;;;;;;;3.55;84.19;94935.34;4953836;29;20560;-79
2022/02/03 10:00:36;;;;;;;40.00;19.07;;;;;;;3.55;83.63;94940.53;4953806;29;20496;-79
2022/02/03 10:03:07;;;;;;;25.57;18.43;;;;;;;3.53;83.58;94928.56;4953890;29;20554;-79
2022/02/03 10:05:37;;;;;;;21.33;14.63;;;;;;;3.60;83.17;94935.91;4954100;29;20475;-79
2022/02/03 10:08:12;;;;;;;29.00;18.20;;;;;;;3.65;83.95;94935.66;4953221;28;20507;-80
2022/02/03 10:10:38;;;;;;;33.83;20.10;;;;;;;3.68;83.20;94936.31;4953765;29;20986;-79
2022/02/03 10:13:16;;;;;;;46.90;26.83;;;;;;;3.69;83.11;94937.13;4957714;28;20444;-80
2022/02/03 10:15:43;;;;;;;22.33;15.67;;;;;;;3.69;84.05;94932.78;4973692;28;20793;-79
2022/02/03 10:18:21;;;;;;;29.87;20.43;;;;;;;3.73;83.10;94939.47;4972896;28;20443;-79
2022/02/03 10:20:49;;;;;;;31.23;17.70;;;;;;;3.84;82.97;94932.84;4972965;28;20561;-79
2022/02/03 10:23:22;;;;;;;19.43;15.20;;;;;;;3.99;82.00;94937.13;4972895;28;20444;-80
2022/02/03 10:25:53;;;;;;;23.03;16.67;;;;;;;4.07;82.01;94942.72;4972892;28;20442;-79
2022/02/03 10:28:20;;;;;;;19.47;15.90;;;;;;;4.20;81.16;94933.28;4972809;28;20451;-79
2022/02/03 10:30:50;;;;;;;16.70;13.40;;;;;;;4.20;80.94;94938.47;4972731;28;20980;-79
2022/02/03 10:33:19;;;;;;;19.60;13.13;;;;;;;4.38;79.71;94943.50;4972876;28;20480;-79
2022/02/03 10:35:49;;;;;;;19.67;14.87;;;;;;;4.41;79.33;94948.53;5024872;28;20500;-79
2022/02/03 10:38:44;;;;;;;17.63;12.20;;;;;;;4.51;79.44;94937.47;5033733;28;20437;-78
2022/02/03 10:41:38;;;;;;;19.60;14.77;;;;;;;4.59;79.21;94929.19;5033687;28;20953;-79
2022/02/03 10:47:09;;;;;;;16.33;12.23;;;;;;;4.85;78.72;94933.66;5033404;28;20408;-80
2022/02/03 10:50:07;;;;;;;13.47;11.97;;;;;;;4.94;77.50;94927.06;5033255;28;20956;-79
2022/02/03 10:58:28;;;;;;;13.93;10.87;;;;;;;5.10;76.10;94925.16;5033529;28;20419;-80
2022/02/03 11:01:16;;;;;;;14.00;9.83;;;;;;;5.03;76.73;94938.66;5032923;28;20552;-79
2022/02/03 11:04:03;;;;;;;13.80;10.23;;;;;;;5.03;76.27;94934.28;5033559;28;20477;-80
2022/02/03 11:06:36;;;;;;;20.93;11.70;;;;;;;5.07;77.04;94927.13;5033662;28;20455;-79
2022/02/03 11:09:13;;;;;;;18.37;10.93;;;;;;;5.10;76.84;94924.31;5033024;28;20526;-80
2022/02/03 11:11:49;;;;;;;14.63;11.10;;;;;;;5.23;76.89;94926.06;5033393;28;20550;-80
2022/02/03 11:14:17;;;;;;;20.00;11.83;;;;;;;5.42;75.23;94925.72;5033319;28;20443;-80
2022/02/03 11:16:45;;;;;;;12.80;11.50;;;;;;;5.51;74.80;94917.34;5033487;28;20430;-80
2022/02/03 11:19:16;;;;;;;11.60;9.63;;;;;;;5.50;73.46;94899.22;5033014;28;21212;-80
2022/02/03 11:21:48;;;;;;;10.83;9.50;;;;;;;5.57;73.33;94916.09;5018034;28;20478;-80
2022/02/03 11:24:22;;;;;;;9.00;7.93;;;;;;;5.65;73.35;94920.78;5037546;28;20445;-79
2022/02/03 11:27:11;;;;;;;12.73;10.73;;;;;;;5.64;73.32;94917.34;5037179;28;20437;-79
2022/02/03 11:30:13;;;;;;;11.90;9.80;;;;;;;5.67;72.62;94924.97;5036395;28;20450;-79
2022/02/03 11:32:59;;;;;;;14.77;9.43;;;;;;;5.89;72.89;94927.00;5036065;28;21026;-78
2022/02/03 11:38:59;;;;;;;11.07;9.37;;;;;;;6.02;71.17;94909.66;5013523;28;20489;-79
2022/02/03 11:42:00;;;;;;;23.80;14.10;;;;;;;6.04;71.53;94919.97;5013506;28;20485;-79
2022/02/03 11:45:24;;;;;;;15.87;11.50;;;;;;;6.03;72.40;94907.88;5013644;28;20834;-80
2022/02/03 11:51:06;;;;;;;10.33;9.17;;;;;;;6.06;71.16;94918.09;5010121;28;20444;-77
2022/02/03 11:57:15;;;;;;;15.27;10.00;;;;;;;5.87;72.79;94918.47;5013140;28;20561;-79
2022/02/03 12:00:23;;;;;;;11.37;10.13;;;;;;;5.74;72.66;94910.59;5013568;28;20471;-79
2022/02/03 12:03:08;;;;;;;14.37;10.27;;;;;;;5.60;72.68;94928.91;5014364;28;20466;-79
2022/02/03 12:06:20;;;;;;;26.67;18.57;;;;;;;5.53;72.40;94917.22;4986486;28;20456;-79
2022/02/03 12:20:11;;;;;;;12.50;10.00;;;;;;;5.56;73.08;94936.09;5036054;28;20788;-78
2022/02/03 12:22:55;;;;;;;12.90;10.13;;;;;;;5.59;74.12;94932.44;5017263;28;20446;-78
2022/02/03 12:25:40;;;;;;;15.00;10.07;;;;;;;5.63;73.51;94938.28;5035649;28;20507;-79
2022/02/03 12:31:10;;;;;;;15.47;12.23;;;;;;;5.66;73.67;94932.88;4949883;28;20495;-79
2022/02/03 12:39:13;;;;;;;18.27;13.23;;;;;;;5.71;74.00;94936.00;4994516;28;20432;-80
2022/02/03 12:41:43;;;;;;;16.63;10.23;;;;;;;5.75;73.48;94933.09;4932136;28;20479;-79
2022/02/03 12:44:18;;;;;;;27.30;15.70;;;;;;;5.77;73.10;94935.59;5013119;28;20448;-79
2022/02/03 12:46:46;;;;;;;16.37;12.07;;;;;;;5.71;73.90;94936.00;5013601;28;20505;-79
2022/02/03 12:49:15;;;;;;;23.93;14.93;;;;;;;5.61;73.03;94938.38;5013636;28;20763;-79
2022/02/03 12:51:42;;;;;;;16.07;12.27;;;;;;;5.62;73.32;94937.44;5013504;28;20511;-79
2022/02/03 12:54:10;;;;;;;19.93;13.93;;;;;;;5.56;73.51;94937.84;5013833;28;20483;-79
2022/02/03 12:56:39;;;;;;;29.10;18.93;;;;;;;5.47;74.33;94944.47;5013420;28;20438;-79
2022/02/03 12:59:10;;;;;;;20.00;15.53;;;;;;;5.54;74.50;94945.75;5013026;28;20546;-80
2022/02/03 13:01:39;;;;;;;19.33;10.53;;;;;;;5.50;74.04;94944.28;5013409;28;20487;-79
2022/02/03 13:04:11;;;;;;;11.60;9.60;;;;;;;5.48;73.69;94940.94;5013532;28;20456;-80
2022/02/03 13:06:45;;;;;;;11.90;8.73;;;;;;;5.39;75.55;94938.09;5013380;28;20805;-79
2022/02/03 13:09:12;;;;;;;11.20;8.20;;;;;;;5.35;76.16;94939.22;5052107;28;20533;-80
2022/02/03 13:11:43;;;;;;;13.57;10.53;;;;;;;5.37;77.47;94947.75;5055029;28;20456;-79
2022/02/03 13:14:22;;;;;;;13.13;10.73;;;;;;;5.29;78.33;94941.28;5055100;28;20454;-79
2022/02/03 13:16:55;;;;;;;15.80;11.20;;;;;;;5.31;79.25;94954.19;5054785;28;20465;-79
2022/02/03 13:19:31;;;;;;;13.13;10.50;;;;;;;5.31;78.39;94949.00;5055648;28;20446;-80
2022/02/03 13:22:12;;;;;;;17.90;10.07;;;;;;;5.33;79.18;94960.13;5054780;28;20473;-79
2022/02/03 13:25:04;;;;;;;17.40;12.37;;;;;;;5.31;79.07;94959.41;5054767;28;20453;-77
2022/02/03 13:27:38;;;;;;;13.23;9.70;;;;;;;5.14;80.09;94965.63;5054780;28;20922;-80
2022/02/03 13:30:12;;;;;;;13.20;9.47;;;;;;;4.90;85.66;94961.94;5055403;28;20449;-80
2022/02/03 13:32:42;;;;;;;15.53;9.53;;;;;;;4.73;87.65;94959.56;5054235;28;20437;-79
2022/02/03 13:38:01;;;;;;;11.57;8.57;;;;;;;4.41;91.47;94979.69;5024588;28;20548;-79
2022/02/03 13:40:29;;;;;;;15.53;10.77;;;;;;;4.07;93.56;94979.06;5054238;28;20440;-79
2022/02/03 13:43:01;;;;;;;16.00;11.83;;;;;;;3.89;95.88;94987.91;5054313;28;20440;-80
2022/02/03 13:45:28;;;;;;;17.37;13.50;;;;;;;3.82;96.89;94984.00;5054339;28;20441;-79
2022/02/03 13:47:55;;;;;;;17.40;12.80;;;;;;;3.71;97.97;94974.22;5054748;28;20429;-80
2022/02/03 13:50:25;;;;;;;17.93;12.63;;;;;;;3.61;98.58;94981.69;5054808;28;20436;-79
2022/02/03 14:29:12;;;;;;;21.43;13.67;;;;;;;4.02;93.62;95007.03;4972972;28;20409;-79
2022/02/03 14:31:40;;;;;;;22.13;12.80;;;;;;;4.08;93.23;95006.72;4972955;28;20459;-82
2022/02/03 14:34:12;;;;;;;16.23;11.27;;;;;;;4.06;93.40;95008.56;4910319;28;20452;-80
2022/02/03 14:36:41;;;;;;;35.17;16.57;;;;;;;3.91;93.34;95004.22;4973590;28;20938;-81
2022/02/03 14:39:17;;;;;;;24.10;15.97;;;;;;;3.90;92.69;95011.19;5019579;28;20794;-80
2022/02/03 14:41:48;;;;;;;16.20;11.70;;;;;;;3.82;92.08;95009.97;5053535;28;20517;-78
2022/02/03 14:44:17;;;;;;;18.40;12.53;;;;;;;3.83;91.83;95022.00;5054226;28;20470;-81
2022/02/03 14:46:45;;;;;;;21.33;15.23;;;;;;;3.72;92.27;95023.44;5036449;28;20432;-83
2022/02/03 14:49:12;;;;;;;21.67;14.93;;;;;;;3.59;90.23;95019.84;5054449;28;20532;-79
2022/02/03 14:51:53;;;;;;;15.43;10.77;;;;;;;3.47;88.61;95030.94;5053808;28;20827;-79
2022/02/03 14:58:01;;;;;;;15.97;9.43;;;;;;;3.47;88.28;95032.66;5053715;28;20459;-79
2022/02/03 14:59:54;;;;;;;11.50;9.77;;;;;;;3.39;86.06;95038.25;5053693;28;20817;-79
2022/02/03 15:02:21;;;;;;;11.33;8.10;;;;;;;3.37;84.98;95042.69;5053409;28;20480;-80
2022/02/03 15:04:54;;;;;;;9.27;8.07;;;;;;;3.32;85.44;95036.94;5053263;28;20935;-80
2022/02/03 15:07:22;;;;;;;12.03;9.60;;;;;;;3.33;84.52;95043.78;5054270;28;20432;-79
2022/02/03 15:12:41;;;;;;;15.13;9.77;;;;;;;3.33;84.30;95054.16;5053186;28;20415;-79
2022/02/03 15:15:09;;;;;;;11.53;9.57;;;;;;;3.38;83.81;95052.16;5053105;28;20455;-80
2022/02/03 15:17:37;;;;;;;14.70;9.87;;;;;;;3.31;84.03;95053.41;5053178;28;20936;-81
2022/02/03 15:20:04;;;;;;;14.50;10.23;;;;;;;3.29;84.03;95063.88;5053360;28;20461;-79
2022/02/03 15:22:31;;;;;;;15.23;10.87;;;;;;;3.26;84.47;95066.63;5053088;28;20476;-80
2022/02/03 15:25:00;;;;;;;15.27;9.23;;;;;;;3.25;84.44;95071.91;5018252;28;20578;-79
2022/02/03 15:27:27;;;;;;;14.80;9.60;;;;;;;3.18;84.70;95078.31;5052772;28;20532;-79
2022/02/03 15:37:01;;;;;;;15.30;9.17;;;;;;;3.11;82.01;95086.41;5033562;28;20447;-79
2022/02/03 15:39:36;;;;;;;17.20;10.30;;;;;;;3.16;81.14;95090.50;5033340;28;20444;-79
2022/02/03 15:42:04;;;;;;;17.33;10.10;;;;;;;3.20;79.99;95099.84;5033356;28;20954;-79
2022/02/03 15:44:38;;;;;;;13.80;9.20;;;;;;;3.21;78.77;95102.34;5033025;28;20469;-79
2022/02/03 15:47:11;;;;;;;16.43;9.40;;;;;;;3.26;79.01;95104.69;5034083;28;20461;-78
2022/02/03 15:50:10;;;;;;;12.53;7.50;;;;;;;3.22;77.68;95113.56;5032894;28;20527;-78
2022/02/03 16:18:35;;;;;;;10.50;8.00;;;;;;;3.15;76.26;95179.59;4994908;28;20433;-79
2022/02/03 16:21:12;;;;;;;27.40;15.60;;;;;;;3.14;74.88;95178.75;4994427;28;20452;-80
2022/02/03 16:40:49;;;;;;;21.23;10.93;;;;;;;3.10;74.55;95201.41;4842207;29;20453;-80
2022/02/03 16:51:38;;;;;;;14.20;9.77;;;;;;;2.96;75.19;95234.97;4770166;30;20463;-79
2022/02/03 16:54:10;;;;;;;15.63;9.77;;;;;;;2.99;76.00;95237.41;4824637;29;20985;-81
2022/02/03 16:56:37;;;;;;;10.10;8.20;;;;;;;2.94;75.74;95233.38;4824465;29;20814;-78
2022/02/03 16:59:04;;;;;;;13.87;9.80;;;;;;;2.93;76.20;95249.84;4824257;29;20538;-78
2022/02/03 17:01:31;;;;;;;15.03;10.70;;;;;;;2.89;76.95;95248.28;4823919;29;20490;-81
2022/02/03 17:04:00;;;;;;;12.77;9.27;;;;;;;2.84;76.25;95253.69;4872684;29;20459;-78
2022/02/03 17:06:26;;;;;;;25.53;9.13;;;;;;;2.74;76.61;95257.66;4898023;29;20457;-79
2022/02/03 17:08:53;;;;;;;11.73;8.90;;;;;;;2.72;76.88;95259.47;4946829;28;20807;-81
2022/02/03 17:11:20;;;;;;;13.00;9.30;;;;;;;2.64;77.01;95251.25;4994706;28;20445;-79
2022/02/03 17:13:47;;;;;;;14.60;9.83;;;;;;;2.63;77.29;95245.22;4994717;28;20247;-80
2022/02/03 17:16:20;;;;;;;17.77;11.23;;;;;;;2.61;77.69;95252.25;4994293;28;20566;-79
2022/02/03 17:18:50;;;;;;;14.00;10.00;;;;;;;2.62;77.29;95263.44;4993920;28;20443;-79
2022/02/03 17:21:18;;;;;;;15.73;11.50;;;;;;;2.59;76.99;95271.34;5033332;28;20562;-79
2022/02/03 17:23:45;;;;;;;14.70;9.60;;;;;;;2.58;76.81;95275.66;5035861;28;20464;-79
2022/02/03 17:26:18;;;;;;;11.00;8.60;;;;;;;2.55;76.48;95277.56;5035374;28;20459;-81
2022/02/03 17:28:50;;;;;;;13.00;9.83;;;;;;;2.39;76.23;95280.91;5017737;28;21004;-80
2022/02/03 17:31:23;;;;;;;16.80;10.57;;;;;;;2.35;76.92;95281.13;5035780;28;20471;-79
2022/02/03 18:10:00;;;;;;;16.47;12.33;;;;;;;1.76;81.30;95300.19;4915754;29;20441;-80
2022/02/03 18:30:00;;;;;;;24.47;14.00;;;;;;;1.88;80.26;95319.50;4840487;29;20519;-80
2022/02/03 18:35:26;;;;;;;17.03;12.10;;;;;;;1.98;79.93;95334.53;4841206;29;20428;-79
2022/02/03 18:51:42;;;;;;;14.27;9.50;;;;;;;2.03;78.55;95344.72;4927731;29;20907;-79
2022/02/03 18:54:22;;;;;;;14.67;11.87;;;;;;;2.01;78.42;95343.91;4953647;29;20436;-78
2022/02/03 18:56:56;;;;;;;12.23;8.88;;;;;;;1.87;78.68;95347.13;4958966;28;20436;-76
2022/02/03 19:02:34;;;;;;;15.70;10.52;;;;;;;1.82;79.30;95349.91;4998148;28;20217;-81
2022/02/03 19:25:05;;;;;;;16.53;12.23;;;;;;;1.85;79.34;95365.28;4972870;28;20441;-80
2022/02/03 19:27:53;;;;;;;19.70;12.60;;;;;;;1.74;78.83;95356.34;4972591;28;20449;-77
2022/02/03 20:06:27;;;;;;;20.05;10.70;;;;;;;1.54;78.78;95360.59;4937028;29;20203;-77
2022/02/03 20:08:58;;;;;;;13.00;9.30;;;;;;;1.58;78.25;95360.47;4937835;29;20587;-79
2022/02/03 20:11:27;;;;;;;12.75;8.82;;;;;;;1.52;78.59;95361.56;4936735;29;20218;-78
2022/02/03 20:13:54;;;;;;;9.52;8.52;;;;;;;1.47;78.91;95358.34;4937029;29;20246;-81
2022/02/03 20:16:22;;;;;;;9.52;8.50;;;;;;;1.43;79.13;95351.59;4936823;29;20196;-81
2022/02/03 20:18:49;;;;;;;9.68;7.72;;;;;;;1.48;79.22;95347.09;4936946;29;20207;-78
2022/02/03 20:21:19;;;;;;;9.63;7.93;;;;;;;1.50;79.09;95353.88;4936424;29;20199;-79
2022/02/03 20:23:46;;;;;;;10.38;8.35;;;;;;;1.47;79.31;95353.16;4936314;29;20241;-78
2022/02/03 20:26:16;;;;;;;9.75;7.80;;;;;;;1.48;79.39;95344.50;4943119;29;20206;-78
2022/02/03 20:28:44;;;;;;;13.95;8.65;;;;;;;1.43;79.28;95349.00;4955462;29;20223;-78
2022/02/03 20:31:11;;;;;;;10.80;8.45;;;;;;;1.48;79.35;95347.09;4959685;28;20203;-79
2022/02/03 20:33:38;;;;;;;12.80;9.43;;;;;;;1.44;79.21;95348.09;5035510;28;20208;-78
2022/02/03 20:36:08;;;;;;;9.38;8.15;;;;;;;1.44;79.29;95351.53;5039175;28;20204;-79
2022/02/03 20:38:36;;;;;;;16.90;9.98;;;;;;;1.42;79.12;95355.91;5055469;28;20188;-80
2022/02/03 20:41:04;;;;;;;9.40;6.85;;;;;;;1.39;79.24;95348.28;5055625;28;20196;-80
2022/02/03 20:43:58;;;;;;;11.18;7.50;;;;;;;1.44;79.30;95350.69;5055461;28;20212;-80
2022/02/03 20:46:26;;;;;;;10.02;7.47;;;;;;;1.42;79.03;95352.50;5055479;28;20631;-78
2022/02/03 20:48:53;;;;;;;7.20;6.40;;;;;;;1.50;78.75;95355.63;5056028;28;20191;-80
2022/02/03 20:51:21;;;;;;;9.90;7.30;;;;;;;1.48;78.29;95347.09;5055097;28;20303;-80
2022/02/03 20:53:50;;;;;;;9.60;8.27;;;;;;;1.44;79.08;95345.50;5053971;28;20209;-80
2022/02/03 20:56:21;;;;;;;11.63;8.13;;;;;;;1.57;78.81;95359.63;5053374;28;20624;-80
2022/02/03 20:58:49;;;;;;;7.03;6.05;;;;;;;1.51;78.35;95349.53;5054177;28;20445;-80
2022/02/03 21:01:20;;;;;;;6.87;6.07;;;;;;;1.44;78.05;95345.50;5053951;28;20706;-80
2022/02/03 21:03:49;;;;;;;8.02;7.22;;;;;;;1.52;78.58;95351.22;5053915;28;20478;-80
2022/02/03 21:06:16;;;;;;;7.82;5.60;;;;;;;1.45;78.66;95344.63;5053812;28;20609;-80
2022/02/03 21:08:47;;;;;;;8.47;6.47;;;;;;;1.44;78.66;95340.34;5055418;28;20213;-80
2022/02/03 21:11:15;;;;;;;8.23;6.33;;;;;;;1.46;78.29;95348.91;5055137;28;20446;-80
2022/02/03 21:13:43;;;;;;;6.63;5.50;;;;;;;1.42;78.13;95348.16;5055214;28;20432;-79
2022/02/03 21:16:10;;;;;;;9.75;7.80;;;;;;;1.37;78.55;95355.28;5036451;28;20713;-79
2022/02/03 21:18:43;;;;;;;7.68;6.95;;;;;;;1.33;78.51;95358.06;5054815;28;20712;-79
2022/02/03 21:21:10;;;;;;;7.40;6.22;;;;;;;1.31;78.86;95357.28;5055283;28;20189;-79
2022/02/03 21:23:37;;;;;;;9.17;6.47;;;;;;;1.31;78.59;95371.03;5055104;28;20217;-80
2022/02/03 21:26:14;;;;;;;11.48;6.72;;;;;;;1.27;78.62;95364.31;5054915;28;20522;-79